createdAt,value
2022-10-09T00:04:13.999Z,100599.60
2022-10-09T00:09:18.849Z,100608.40
2022-10-09T00:14:22.153Z,100603.00
2022-10-09T00:19:25.570Z,100600.20
2022-10-09T00:24:28.888Z,100607.00
2022-10-09T00:29:32.909Z,100608.40
2022-10-09T00:34:36.217Z,100600.40
2022-10-09T00:39:39.732Z,100607.80
2022-10-09T00:45:01.122Z,100606.80
2022-10-09T00:50:22.711Z,100615.20
2022-10-09T00:55:29.195Z,100615.40
2022-10-09T01:00:33.224Z,100614.60
2022-10-09T01:06:35.869Z,100618.00
2022-10-09T01:11:55.342Z,100620.00
2022-10-09T01:17:44.297Z,100624.00
2022-10-09T01:23:11.981Z,100616.60
2022-10-09T01:28:17.307Z,100629.60
2022-10-09T01:33:20.650Z,100624.60
2022-10-09T01:38:25.388Z,100633.00
2022-10-09T01:43:28.676Z,100634.00
2022-10-09T01:48:32.737Z,100638.60
2022-10-09T01:53:37.446Z,100639.20
2022-10-09T01:59:07.452Z,100646.80
2022-10-09T02:04:14.930Z,100655.20
2022-10-09T02:09:18.977Z,100659.00
2022-10-09T02:14:22.831Z,100666.80
2022-10-09T02:19:43.294Z,100679.60
2022-10-09T02:24:47.774Z,100690.80
2022-10-09T02:29:52.476Z,100697.60
2022-10-09T02:34:55.919Z,100702.80
2022-10-09T02:39:59.203Z,100712.20
2022-10-09T02:45:02.615Z,100713.00
2022-10-09T02:50:07.277Z,100716.60
2022-10-09T02:55:10.676Z,100718.80
2022-10-09T03:00:15.179Z,100728.40
2022-10-09T03:05:18.671Z,100734.40
2022-10-09T03:10:22.450Z,100745.00
2022-10-09T03:15:25.762Z,100748.80
2022-10-09T03:20:31.880Z,100750.80
2022-10-09T03:25:35.170Z,100748.60
2022-10-09T03:30:42.187Z,100754.60
2022-10-09T03:35:50.381Z,100761.80
2022-10-09T03:40:54.830Z,100760.00
2022-10-09T03:46:01.094Z,100769.20
2022-10-09T03:51:05.100Z,100777.40
2022-10-09T03:56:08.532Z,100780.20
2022-10-09T04:01:11.935Z,100776.60
2022-10-09T04:06:15.904Z,100781.80
2022-10-09T04:11:19.391Z,100780.20
2022-10-09T04:16:22.696Z,100793.20
2022-10-09T04:21:26.112Z,100792.40
2022-10-09T04:26:29.426Z,100797.40
2022-10-09T04:31:32.868Z,100806.40
2022-10-09T04:36:36.187Z,100809.20
2022-10-09T04:41:39.464Z,100808.60
2022-10-09T04:46:43.097Z,100822.40
2022-10-09T04:51:46.502Z,100824.40
2022-10-09T04:56:49.805Z,100841.60
2022-10-09T05:01:53.174Z,100842.80
2022-10-09T05:06:56.639Z,100857.60
2022-10-09T05:12:00.255Z,100859.60
2022-10-09T05:17:14.592Z,100869.80
2022-10-09T05:22:18.343Z,100879.40
2022-10-09T05:27:21.654Z,100886.00
2022-10-09T05:32:24.980Z,100893.40
2022-10-09T05:37:28.206Z,100897.40
2022-10-09T05:42:31.597Z,100897.40
2022-10-09T05:47:35.115Z,100898.00
2022-10-09T05:52:40.297Z,100907.80
2022-10-09T05:57:43.657Z,100915.00
2022-10-09T06:02:47.191Z,100923.20
2022-10-09T06:07:51.019Z,100932.60
2022-10-09T06:12:54.231Z,100948.60
2022-10-09T06:17:58.045Z,100960.60
2022-10-09T06:23:01.356Z,100965.20
2022-10-09T06:28:04.873Z,100978.60
2022-10-09T06:33:08.391Z,100980.80
2022-10-09T06:38:11.910Z,100991.60
2022-10-09T06:43:15.232Z,100997.60
2022-10-09T06:48:18.836Z,101011.20
2022-10-09T06:53:22.146Z,101018.80
2022-10-09T06:58:26.161Z,101026.20
2022-10-09T07:03:29.741Z,101039.60
2022-10-09T07:08:34.082Z,101046.00
2022-10-09T07:13:38.097Z,101055.00
2022-10-09T07:18:41.576Z,101061.20
2022-10-09T07:23:44.992Z,101071.60
2022-10-09T07:28:49.465Z,101073.20
2022-10-09T07:33:56.834Z,101086.80
2022-10-09T07:39:00.660Z,101091.40
2022-10-09T07:44:04.070Z,101090.00
2022-10-09T07:49:07.537Z,101103.40
2022-10-09T07:54:10.802Z,101117.40
2022-10-09T07:59:16.459Z,101116.80
2022-10-09T08:04:19.975Z,101116.20
2022-10-09T08:09:23.492Z,101128.60
2022-10-09T08:14:28.235Z,101130.80
2022-10-09T08:19:31.680Z,101132.60
2022-10-09T08:24:34.979Z,101144.20
2022-10-09T08:29:40.394Z,101149.00
2022-10-09T08:34:43.947Z,101152.60
2022-10-09T08:39:47.222Z,101164.60
2022-10-09T08:44:50.801Z,101170.20
2022-10-09T08:50:02.374Z,101169.40
2022-10-09T08:55:26.167Z,101173.00
2022-10-09T09:00:45.250Z,101181.80
2022-10-09T09:06:26.350Z,101184.00
2022-10-09T09:12:19.480Z,101197.00
2022-10-09T09:17:56.328Z,101199.00
2022-10-09T09:23:02.203Z,101200.00
2022-10-09T09:28:29.214Z,101201.00
2022-10-09T09:33:45.071Z,101213.60
2022-10-09T09:39:28.623Z,101208.80
2022-10-09T09:44:17.497Z,101232.40
2022-10-09T09:49:27.459Z,101228.00
2022-10-09T09:54:31.512Z,101232.00
2022-10-09T09:59:40.810Z,101231.80
2022-10-09T10:04:53.261Z,101231.00
2022-10-09T10:10:27.824Z,101238.00
2022-10-09T10:15:34.819Z,101234.20
2022-10-09T10:21:17.223Z,101240.20
2022-10-09T10:26:42.322Z,101245.40
2022-10-09T10:32:00.330Z,101229.80
2022-10-09T10:37:15.711Z,101248.80
2022-10-09T10:42:47.378Z,101248.80
2022-10-09T10:47:56.532Z,101237.20
2022-10-09T10:53:46.233Z,101235.00
2022-10-09T10:59:26.615Z,101243.00
2022-10-09T11:04:51.193Z,101254.20
2022-10-09T11:10:05.859Z,101256.60
2022-10-09T11:15:22.695Z,101271.60
2022-10-09T11:20:59.566Z,101263.00
2022-10-09T11:26:27.208Z,101264.00
2022-10-09T11:31:53.614Z,101250.80
2022-10-09T11:36:59.944Z,101269.20
2022-10-09T11:42:04.893Z,101263.60
2022-10-09T11:47:45.173Z,101259.80
2022-10-09T11:53:11.377Z,101272.20
2022-10-09T11:58:26.175Z,101273.40
2022-10-09T12:03:37.296Z,101266.60
2022-10-09T12:09:07.540Z,101273.20
2022-10-09T12:14:23.854Z,101272.60
2022-10-09T12:19:38.329Z,101269.60
2022-10-09T12:24:47.173Z,101263.60
2022-10-09T12:30:13.496Z,101257.00
2022-10-09T12:35:29.119Z,101261.80
2022-10-09T12:40:34.294Z,101270.40
2022-10-09T12:45:44.892Z,101260.20
2022-10-09T12:50:49.295Z,101266.80
2022-10-09T12:56:01.473Z,101266.80
2022-10-09T13:01:08.251Z,101273.60
2022-10-09T13:06:19.304Z,101264.40
2022-10-09T13:11:41.164Z,101266.20
2022-10-09T13:16:47.816Z,101264.60
2022-10-09T13:22:25.451Z,101271.60
2022-10-09T13:27:35.182Z,101271.20
2022-10-09T13:32:38.527Z,101265.80
2022-10-09T13:37:42.461Z,101265.20
2022-10-09T13:42:58.463Z,101265.40
2022-10-09T13:48:02.186Z,101272.40
2022-10-09T13:53:05.908Z,101274.60
2022-10-09T13:58:09.730Z,101282.80
2022-10-09T14:03:13.447Z,101281.60
2022-10-09T14:08:16.812Z,101279.40
2022-10-09T14:13:20.993Z,101283.00
2022-10-09T14:18:24.612Z,101282.20
2022-10-09T14:23:28.027Z,101284.80
2022-10-09T14:28:31.918Z,101284.20
2022-10-09T14:33:35.467Z,101282.80
2022-10-09T14:38:42.981Z,101277.20
2022-10-09T14:43:48.239Z,101286.80
2022-10-09T14:48:55.234Z,101285.80
2022-10-09T14:53:58.955Z,101284.60
2022-10-09T14:59:03.325Z,101284.00
2022-10-09T15:04:07.099Z,101284.40
2022-10-09T15:09:11.143Z,101282.20
2022-10-09T15:14:14.460Z,101279.80
2022-10-09T15:19:17.970Z,101290.80
2022-10-09T15:24:21.205Z,101300.20
2022-10-09T15:29:24.801Z,101299.80
2022-10-09T15:34:29.549Z,101301.80
2022-10-09T15:39:34.197Z,101304.80
2022-10-09T15:44:37.667Z,101295.60
2022-10-09T15:49:44.871Z,101296.80
2022-10-09T15:54:48.317Z,101300.40
2022-10-09T15:59:51.731Z,101309.20
2022-10-09T16:04:55.007Z,101303.80
2022-10-09T16:09:59.274Z,101312.00
2022-10-09T16:15:02.895Z,101313.60
2022-10-09T16:20:07.717Z,101308.00
2022-10-09T16:25:11.564Z,101310.80
2022-10-09T16:30:14.978Z,101313.60
2022-10-09T16:35:18.495Z,101319.00
2022-10-09T16:40:32.687Z,101321.60
2022-10-09T16:45:45.455Z,101317.60
2022-10-09T16:50:48.913Z,101325.00
2022-10-09T16:55:52.230Z,101315.20
2022-10-09T17:01:03.901Z,101324.00
2022-10-09T17:06:13.910Z,101327.20
2022-10-09T17:11:18.720Z,101325.60
2022-10-09T17:16:25.954Z,101330.00
2022-10-09T17:21:34.149Z,101327.00
2022-10-09T17:26:38.026Z,101330.40
2022-10-09T17:31:41.627Z,101330.60
2022-10-09T17:36:45.741Z,101334.80
2022-10-09T17:41:49.265Z,101338.80
2022-10-09T17:46:53.061Z,101333.20
2022-10-09T17:51:56.432Z,101327.00
2022-10-09T17:57:01.574Z,101336.40
2022-10-09T18:02:06.030Z,101336.60
2022-10-09T18:07:09.363Z,101341.40
2022-10-09T18:12:12.717Z,101349.20
2022-10-09T18:17:16.033Z,101354.60
2022-10-09T18:22:19.439Z,101346.40
2022-10-09T18:27:24.188Z,101354.20
2022-10-09T18:32:27.600Z,101355.40
2022-10-09T18:37:30.923Z,101353.60
2022-10-09T18:42:36.065Z,101355.40
2022-10-09T18:47:40.815Z,101354.00
2022-10-09T18:52:45.559Z,101359.00
2022-10-09T18:57:49.071Z,101358.80
2022-10-09T19:02:52.486Z,101356.20
2022-10-09T19:07:55.971Z,101356.60
2022-10-09T19:12:59.418Z,101356.40
2022-10-09T19:18:02.917Z,101366.60
2022-10-09T19:23:06.197Z,101360.40
2022-10-09T19:28:09.535Z,101368.40
2022-10-09T19:33:14.065Z,101361.20
2022-10-09T19:38:18.925Z,101360.80
2022-10-09T19:43:24.478Z,101359.00
2022-10-09T19:48:27.814Z,101361.80
2022-10-09T19:53:31.290Z,101352.40
2022-10-09T19:58:34.548Z,101355.60
2022-10-09T20:03:39.840Z,101367.40
2022-10-09T20:08:45.344Z,101360.20
2022-10-09T20:13:55.564Z,101375.20
2022-10-09T20:19:02.731Z,101364.60
2022-10-09T20:24:06.929Z,101357.00
2022-10-09T20:29:10.595Z,101357.80
2022-10-09T20:34:13.835Z,101371.20
2022-10-09T20:39:19.713Z,101363.80
2022-10-09T20:44:23.392Z,101366.80
2022-10-09T20:49:27.029Z,101361.80
2022-10-09T20:54:30.709Z,101361.60
2022-10-09T20:59:34.155Z,101368.40
2022-10-09T21:04:37.566Z,101364.40
2022-10-09T21:09:40.977Z,101358.00
2022-10-09T21:14:44.400Z,101361.60
2022-10-09T21:19:50.726Z,101363.60
2022-10-09T21:24:54.085Z,101366.60
2022-10-09T21:29:57.398Z,101357.20
2022-10-09T21:35:00.711Z,101358.00
2022-10-09T21:40:05.342Z,101359.80
2022-10-09T21:45:09.855Z,101364.20
2022-10-09T21:50:13.201Z,101363.20
2022-10-09T21:55:16.852Z,101366.40
2022-10-09T22:00:21.064Z,101374.20
2022-10-09T22:05:24.479Z,101363.20
2022-10-09T22:10:27.870Z,101378.00
2022-10-09T22:15:31.197Z,101373.20
2022-10-09T22:20:39.807Z,101371.60
2022-10-09T22:25:43.240Z,101368.60
2022-10-09T22:30:46.491Z,101368.60
2022-10-09T22:35:49.764Z,101376.80
2022-10-09T22:40:53.117Z,101384.80
2022-10-09T22:45:56.507Z,101376.80
2022-10-09T22:51:03.336Z,101374.00
2022-10-09T22:56:15.355Z,101371.20
2022-10-09T23:01:31.749Z,101365.20
2022-10-09T23:06:35.532Z,101375.00
2022-10-09T23:11:39.142Z,101371.40
2022-10-09T23:16:43.413Z,101366.00
2022-10-09T23:21:47.520Z,101359.20
2022-10-09T23:26:52.234Z,101364.00
2022-10-09T23:31:55.545Z,101353.40
2022-10-09T23:36:58.955Z,101357.80
2022-10-09T23:42:02.248Z,101354.40
2022-10-09T23:47:05.612Z,101350.40
2022-10-09T23:52:08.984Z,101350.40
2022-10-09T23:57:12.340Z,101350.60
